Time;durP1;ratioP1;P1;durP2;ratioP2;P2;SDS_P1;SDS_P2;PMS_P1;PMS_P2;Temp;Humidity;BMP_temperature;BMP_pressure;BME280_temperature;BME280_humidity;BME280_pressure;Samples;Min_cycle;Max_cycle;Signal;HPM_P1;HPM_P2
2021/06/30 00:00:15;;;;;;;4.95;4.10;;;19.00;90.10;;;;;;6251715;22;20481;-92
2021/06/30 00:02:41;;;;;;;5.30;4.50;;;18.90;90.20;;;;;;6277585;22;20004;-92
2021/06/30 00:05:08;;;;;;;5.60;4.53;;;18.90;90.30;;;;;;6305528;22;19990;-92
2021/06/30 00:07:34;;;;;;;4.95;3.78;;;18.90;90.50;;;;;;6305472;22;20067;-92
2021/06/30 00:10:03;;;;;;;4.63;4.18;;;18.80;90.40;;;;;;6279281;22;19992;-92
2021/06/30 00:12:29;;;;;;;4.68;4.20;;;18.80;90.60;;;;;;6270778;22;20008;-92
2021/06/30 00:14:56;;;;;;;4.18;3.65;;;18.80;90.70;;;;;;6255411;22;20026;-92
2021/06/30 00:17:22;;;;;;;5.90;3.60;;;18.80;90.70;;;;;;6256054;22;20073;-92
2021/06/30 00:19:48;;;;;;;5.22;4.25;;;18.70;90.80;;;;;;6283170;22;20083;-92
2021/06/30 00:22:14;;;;;;;4.35;3.92;;;18.70;91.00;;;;;;6281996;22;19996;-92
2021/06/30 00:24:40;;;;;;;6.00;4.28;;;18.70;91.00;;;;;;6253829;22;20034;-92
2021/06/30 00:27:06;;;;;;;5.53;4.57;;;18.60;91.10;;;;;;6253028;22;20407;-91
2021/06/30 00:29:31;;;;;;;6.35;4.07;;;18.60;91.30;;;;;;6253458;22;20018;-91
2021/06/30 00:31:57;;;;;;;4.95;4.45;;;18.60;91.30;;;;;;6253312;22;20000;-92
2021/06/30 00:34:23;;;;;;;6.03;4.65;;;18.60;91.40;;;;;;6253169;22;19996;-92
2021/06/30 00:36:49;;;;;;;4.97;4.35;;;18.50;91.40;;;;;;6253121;22;20006;-92
2021/06/30 00:39:16;;;;;;;4.93;4.05;;;18.50;91.40;;;;;;6253899;22;19996;-92
2021/06/30 00:41:43;;;;;;;5.45;4.35;;;18.50;91.40;;;;;;6253468;22;20004;-92
2021/06/30 00:44:09;;;;;;;4.78;3.80;;;18.50;91.50;;;;;;6253193;22;20441;-92
2021/06/30 00:46:35;;;;;;;4.00;3.65;;;18.40;91.40;;;;;;6252909;22;20010;-92
2021/06/30 00:49:02;;;;;;;4.63;3.72;;;18.40;91.40;;;;;;6280166;22;20119;-92
2021/06/30 00:51:29;;;;;;;7.78;4.50;;;18.40;91.30;;;;;;6253664;22;20419;-92
2021/06/30 00:53:55;;;;;;;5.93;4.35;;;18.40;91.30;;;;;;6253005;22;20371;-92
2021/06/30 00:56:24;;;;;;;3.95;3.40;;;18.40;91.30;;;;;;6253151;22;20007;-91
2021/06/30 00:58:52;;;;;;;4.85;3.30;;;18.40;91.20;;;;;;6253070;22;20065;-92
2021/06/30 01:01:19;;;;;;;4.60;3.50;;;18.40;91.20;;;;;;6252908;22;20011;-92
2021/06/30 01:03:46;;;;;;;5.65;3.92;;;18.40;91.00;;;;;;6253454;22;20010;-92
2021/06/30 01:06:12;;;;;;;4.43;3.95;;;18.40;91.00;;;;;;6253500;22;20010;-92
2021/06/30 01:08:38;;;;;;;7.55;4.18;;;18.40;91.00;;;;;;6253092;22;20003;-92
2021/06/30 01:11:04;;;;;;;3.83;3.42;;;18.40;90.90;;;;;;6253552;22;20004;-92
2021/06/30 01:13:30;;;;;;;5.15;3.63;;;18.40;90.90;;;;;;6280115;22;20074;-92
2021/06/30 01:15:55;;;;;;;4.72;3.90;;;18.40;90.90;;;;;;6252884;22;19996;-92
2021/06/30 01:18:32;;;;;;;3.53;3.22;;;18.40;90.80;;;;;;6253129;22;20014;-92
2021/06/30 01:20:59;;;;;;;4.40;3.35;;;18.40;90.90;;;;;;6253381;22;20419;-92
2021/06/30 01:23:26;;;;;;;3.85;3.45;;;18.40;90.60;;;;;;6253007;22;20361;-92
2021/06/30 01:25:52;;;;;;;4.68;3.72;;;18.40;90.50;;;;;;6252951;22;20004;-92
2021/06/30 01:28:19;;;;;;;3.47;3.13;;;18.40;90.40;;;;;;6252922;22;20011;-91
2021/06/30 01:30:48;;;;;;;2.70;2.50;;;18.40;90.20;;;;;;6253905;22;20049;-92
2021/06/30 01:33:15;;;;;;;6.05;3.20;;;18.50;90.20;;;;;;6252870;22;20000;-91
2021/06/30 01:35:41;;;;;;;4.50;3.08;;;18.50;90.10;;;;;;6253700;22;20049;-92
2021/06/30 01:38:07;;;;;;;3.08;2.78;;;18.50;89.90;;;;;;6253179;22;20000;-92
2021/06/30 01:40:33;;;;;;;4.10;3.28;;;18.50;90.00;;;;;;6252681;22;20006;-91
2021/06/30 01:43:01;;;;;;;4.00;3.10;;;18.50;89.90;;;;;;6252846;22;20026;-92
2021/06/30 01:45:27;;;;;;;4.43;3.50;;;18.50;89.80;;;;;;6254436;22;20004;-92
2021/06/30 01:47:53;;;;;;;3.90;3.38;;;18.50;89.90;;;;;;6256431;22;20004;-92
2021/06/30 01:50:19;;;;;;;4.53;3.50;;;18.50;89.90;;;;;;6258205;22;20004;-91
2021/06/30 01:52:45;;;;;;;4.22;3.63;;;18.50;89.80;;;;;;6258918;22;20026;-92
2021/06/30 01:55:13;;;;;;;4.55;3.47;;;18.50;90.00;;;;;;6260772;22;20004;-92
2021/06/30 01:57:40;;;;;;;4.07;3.67;;;18.40;90.00;;;;;;6270060;22;20024;-91
2021/06/30 02:00:08;;;;;;;5.07;4.03;;;18.40;90.00;;;;;;6274726;22;19988;-90
2021/06/30 02:02:34;;;;;;;4.20;3.47;;;18.40;90.00;;;;;;6279214;22;19984;-90
2021/06/30 02:05:07;;;;;;;4.80;3.90;;;18.40;90.00;;;;;;6280325;22;20012;-90
2021/06/30 02:07:33;;;;;;;6.22;4.13;;;18.30;90.00;;;;;;6306404;22;20035;-91
2021/06/30 02:09:59;;;;;;;4.20;3.80;;;18.30;90.00;;;;;;6279162;22;20030;-91
2021/06/30 02:12:24;;;;;;;4.25;3.22;;;18.30;90.00;;;;;;6261131;22;20059;-91
2021/06/30 02:14:50;;;;;;;3.50;3.17;;;18.40;90.00;;;;;;6255408;22;20041;-91
2021/06/30 02:17:18;;;;;;;5.35;3.55;;;18.30;90.00;;;;;;6252853;22;20006;-91
2021/06/30 02:19:45;;;;;;;4.97;3.47;;;18.40;90.00;;;;;;6252980;22;20000;-91
2021/06/30 02:22:12;;;;;;;5.18;3.35;;;18.40;90.00;;;;;;6252558;22;20015;-91
2021/06/30 02:24:37;;;;;;;4.03;3.60;;;18.30;90.00;;;;;;6252495;22;20000;-90
2021/06/30 02:27:03;;;;;;;4.93;3.92;;;18.40;90.00;;;;;;6252538;22;20008;-91
2021/06/30 02:29:29;;;;;;;5.03;3.38;;;18.40;90.00;;;;;;6252886;22;20008;-91
2021/06/30 02:31:55;;;;;;;3.72;3.38;;;18.40;89.70;;;;;;6252420;22;20441;-91
2021/06/30 02:34:21;;;;;;;3.35;3.05;;;18.40;89.60;;;;;;6252414;22;20053;-90
2021/06/30 02:36:46;;;;;;;4.95;3.47;;;18.50;89.30;;;;;;6252918;22;20000;-91
2021/06/30 02:39:12;;;;;;;4.15;3.20;;;18.50;88.80;;;;;;6252007;22;20054;-91
2021/06/30 02:41:38;;;;;;;4.00;3.60;;;18.60;88.60;;;;;;6252372;22;20466;-90
2021/06/30 02:44:04;;;;;;;3.80;3.20;;;18.60;88.20;;;;;;6252692;22;20003;-91
2021/06/30 02:46:30;;;;;;;4.43;3.30;;;18.70;88.00;;;;;;6251996;22;19996;-91
2021/06/30 02:48:56;;;;;;;3.08;2.78;;;18.70;87.70;;;;;;6251865;22;20327;-91
2021/06/30 02:51:21;;;;;;;2.92;2.72;;;18.80;87.40;;;;;;6278504;22;20000;-91
2021/06/30 02:53:47;;;;;;;3.85;3.45;;;18.80;87.10;;;;;;6251713;22;20419;-91
2021/06/30 02:56:13;;;;;;;3.83;3.03;;;18.90;86.90;;;;;;6251926;22;20000;-91
2021/06/30 02:58:39;;;;;;;3.97;3.03;;;19.00;86.80;;;;;;6251964;22;20043;-91
2021/06/30 03:01:05;;;;;;;5.18;3.35;;;19.00;87.20;;;;;;6252067;22;20386;-91
2021/06/30 03:03:30;;;;;;;3.67;3.22;;;19.10;87.30;;;;;;6251824;22;20010;-91
2021/06/30 03:05:56;;;;;;;4.25;3.50;;;19.20;87.20;;;;;;6251895;22;20111;-91
2021/06/30 03:08:22;;;;;;;4.07;3.67;;;19.20;86.70;;;;;;6252447;22;20134;-91
2021/06/30 03:10:48;;;;;;;7.65;3.85;;;19.30;86.50;;;;;;6251679;22;20014;-91
2021/06/30 03:13:13;;;;;;;3.28;3.00;;;19.30;86.50;;;;;;6251993;22;20427;-91
2021/06/30 03:15:39;;;;;;;3.42;3.13;;;19.40;86.00;;;;;;6251978;22;20145;-91
2021/06/30 03:18:05;;;;;;;3.75;3.30;;;19.40;85.80;;;;;;6251778;22;20130;-91
2021/06/30 03:20:30;;;;;;;3.80;3.13;;;19.50;85.40;;;;;;6253023;22;20031;-91
2021/06/30 03:22:56;;;;;;;3.22;2.92;;;19.50;84.90;;;;;;6255573;22;20053;-91
2021/06/30 03:25:22;;;;;;;3.20;2.90;;;19.60;84.70;;;;;;6258107;22;20411;-91
2021/06/30 03:27:48;;;;;;;3.47;3.13;;;19.60;84.50;;;;;;6261780;22;20008;-91
2021/06/30 03:30:13;;;;;;;4.22;2.95;;;19.70;84.10;;;;;;6259769;22;20000;-91
2021/06/30 03:32:40;;;;;;;4.53;3.20;;;19.80;83.80;;;;;;6251851;22;20000;-91
2021/06/30 03:35:07;;;;;;;3.13;2.80;;;19.90;83.40;;;;;;6251691;22;20056;-91
2021/06/30 03:37:33;;;;;;;3.10;2.80;;;19.90;83.30;;;;;;6252253;22;20457;-91
2021/06/30 03:39:59;;;;;;;4.00;3.60;;;20.00;82.90;;;;;;6250972;22;19995;-91
2021/06/30 03:42:24;;;;;;;3.03;2.72;;;20.10;82.70;;;;;;6251376;22;20002;-91
2021/06/30 03:44:52;;;;;;;4.35;2.53;;;20.20;82.70;;;;;;6251178;22;19996;-91
2021/06/30 03:47:18;;;;;;;3.40;2.90;;;20.30;82.50;;;;;;6252149;22;20007;-91
2021/06/30 03:49:43;;;;;;;2.63;2.42;;;20.30;82.30;;;;;;6275697;22;19991;-91
2021/06/30 03:52:09;;;;;;;2.70;2.50;;;20.50;82.20;;;;;;6279338;22;19995;-91
2021/06/30 03:54:35;;;;;;;3.35;3.05;;;20.60;82.00;;;;;;6279295;22;20043;-91
2021/06/30 03:57:00;;;;;;;5.40;2.88;;;20.70;81.80;;;;;;6278829;22;19987;-90
2021/06/30 03:59:26;;;;;;;3.13;2.80;;;20.70;81.50;;;;;;6272715;22;20065;-91
2021/06/30 04:01:52;;;;;;;3.97;3.03;;;20.80;81.30;;;;;;6292624;22;20061;-91
2021/06/30 04:04:21;;;;;;;2.97;2.67;;;20.90;81.00;;;;;;6260737;22;20003;-91
2021/06/30 04:06:47;;;;;;;3.30;3.00;;;21.00;80.90;;;;;;6253226;22;19999;-91
2021/06/30 04:09:16;;;;;;;3.80;3.45;;;21.10;80.60;;;;;;6252700;22;20012;-91
2021/06/30 04:11:41;;;;;;;3.63;3.20;;;21.10;80.30;;;;;;6251720;22;20008;-91
2021/06/30 04:14:09;;;;;;;4.70;3.60;;;21.20;80.10;;;;;;6251457;22;20296;-91
2021/06/30 04:16:35;;;;;;;3.28;2.97;;;21.30;79.90;;;;;;6252032;22;20010;-91
2021/06/30 04:19:01;;;;;;;4.50;3.80;;;21.40;79.80;;;;;;6278505;22;19991;-91
2021/06/30 04:21:26;;;;;;;3.83;3.33;;;21.40;80.10;;;;;;6252533;22;20014;-91
2021/06/30 04:23:53;;;;;;;4.10;3.50;;;21.60;79.40;;;;;;6251328;22;20411;-91
2021/06/30 04:26:20;;;;;;;3.83;3.35;;;21.70;79.10;;;;;;6251618;22;20304;-91
2021/06/30 04:28:47;;;;;;;5.10;3.65;;;21.80;79.00;;;;;;6251447;22;20022;-91
2021/06/30 04:31:13;;;;;;;4.88;3.97;;;21.90;79.00;;;;;;6251320;22;20012;-92
2021/06/30 04:33:39;;;;;;;4.30;3.65;;;22.00;78.90;;;;;;6250977;22;20438;-91
2021/06/30 04:36:05;;;;;;;4.18;3.22;;;22.10;78.50;;;;;;6251585;22;20000;-91
2021/06/30 04:38:30;;;;;;;4.95;3.63;;;22.10;78.20;;;;;;6251499;22;20007;-91
2021/06/30 04:40:56;;;;;;;4.57;3.45;;;22.20;78.00;;;;;;6250876;22;20023;-91
2021/06/30 04:43:22;;;;;;;4.03;3.60;;;22.20;77.70;;;;;;6251207;22;20003;-91
2021/06/30 04:45:48;;;;;;;4.15;3.63;;;22.30;77.70;;;;;;6251069;22;20003;-91
2021/06/30 04:48:15;;;;;;;4.38;3.45;;;22.40;77.50;;;;;;6251132;22;20011;-91
2021/06/30 04:50:44;;;;;;;3.50;3.20;;;22.40;77.20;;;;;;6253665;22;20015;-91
2021/06/30 04:53:20;;;;;;;3.97;3.17;;;22.50;76.70;;;;;;6252347;22;20003;-91
2021/06/30 04:55:49;;;;;;;4.30;3.05;;;22.60;76.40;;;;;;6252535;22;20007;-91
2021/06/30 04:58:18;;;;;;;3.28;2.97;;;22.70;76.30;;;;;;6250987;22;20030;-92
2021/06/30 05:00:55;;;;;;;3.78;3.38;;;22.80;76.10;;;;;;6252738;22;20321;-92
2021/06/30 05:03:31;;;;;;;5.15;3.97;;;22.90;75.00;;;;;;6255571;22;20000;-91
2021/06/30 05:05:57;;;;;;;3.47;3.17;;;23.00;74.50;;;;;;6256654;22;20415;-92
2021/06/30 05:08:24;;;;;;;3.25;2.95;;;23.10;74.30;;;;;;6256295;22;20011;-92
2021/06/30 05:10:56;;;;;;;3.95;3.60;;;23.10;74.10;;;;;;6259190;22;20004;-92
2021/06/30 05:13:30;;;;;;;3.60;3.30;;;23.20;72.80;;;;;;6254435;22;20000;-92
2021/06/30 05:16:11;;;;;;;4.13;3.72;;;23.20;73.10;;;;;;6259624;22;20012;-92
2021/06/30 05:18:40;;;;;;;4.05;3.45;;;23.10;72.30;;;;;;6247353;22;20319;-92
2021/06/30 05:21:21;;;;;;;;;;;;;;;;;;;;;
2021/06/30 05:24:07;;;;;;;;;;;;;;;;;;;;;
2021/06/30 05:26:36;;;;;;;3.45;3.15;;;23.30;72.80;;;;;;6281462;22;20086;-93
2021/06/30 05:29:04;;;;;;;3.17;2.83;;;23.30;72.90;;;;;;6255015;22;20004;-92
2021/06/30 05:31:43;;;;;;;;;;;;;;;;;;;;;
2021/06/30 05:34:11;;;;;;;3.00;2.70;;;23.60;72.60;;;;;;6282066;22;20066;-93
2021/06/30 05:37:38;;;;;;;3.38;2.95;;;23.60;72.40;;;;;;6254916;22;20011;-91
2021/06/30 05:40:30;;;;;;;3.30;3.00;;;23.70;70.20;;;;;;6224872;22;20091;-92
2021/06/30 05:43:29;;;;;;;;;;;;;;;;;;;;;
2021/06/30 05:46:00;;;;;;;3.60;3.30;;;23.90;70.80;;;;;;6281284;22;20075;-92
2021/06/30 05:48:34;;;;;;;4.38;3.92;;;24.00;69.90;;;;;;6276172;22;20022;-91
2021/06/30 05:51:02;;;;;;;4.70;4.03;;;24.00;69.10;;;;;;6278087;22;20082;-93
2021/06/30 05:53:30;;;;;;;5.25;3.40;;;24.00;69.40;;;;;;6278794;22;19984;-92
2021/06/30 05:56:01;;;;;;;4.20;3.40;;;23.90;69.20;;;;;;6278005;22;20004;-92
2021/06/30 05:58:50;;;;;;;3.95;3.60;;;24.00;69.50;;;;;;6277707;22;20008;-92
2021/06/30 06:01:21;;;;;;;4.10;3.42;;;24.00;69.40;;;;;;6285094;22;20423;-91
2021/06/30 06:03:59;;;;;;;;;;;;;;;;;;;;;
2021/06/30 06:06:41;;;;;;;;;;;;;;;;;;;;;
2021/06/30 06:09:15;;;;;;;3.45;3.15;;;24.20;69.30;;;;;;6288139;22;20039;-93
2021/06/30 06:12:08;;;;;;;3.35;2.95;;;24.30;69.20;;;;;;6263863;22;20068;-92
2021/06/30 06:14:36;;;;;;;3.50;3.20;;;24.50;68.70;;;;;;6264377;22;20078;-93
2021/06/30 06:17:10;;;;;;;6.65;3.33;;;24.70;68.20;;;;;;6257043;22;20014;-92
2021/06/30 06:19:36;;;;;;;3.13;2.83;;;24.90;67.90;;;;;;6253084;22;20010;-91
2021/06/30 06:22:05;;;;;;;3.45;3.05;;;25.00;67.40;;;;;;6252249;22;20083;-92
2021/06/30 06:24:31;;;;;;;4.57;3.80;;;25.10;66.70;;;;;;6252760;22;20034;-90
2021/06/30 06:27:10;;;;;;;3.40;3.10;;;25.10;64.70;;;;;;6254668;22;19999;-91
2021/06/30 06:29:36;;;;;;;3.40;3.10;;;25.00;64.60;;;;;;6257353;22;20015;-91
2021/06/30 06:32:04;;;;;;;3.05;2.75;;;25.00;65.40;;;;;;6257247;22;20000;-91
2021/06/30 06:34:39;;;;;;;3.40;3.10;;;25.00;65.10;;;;;;6235254;22;20114;-90
2021/06/30 06:37:05;;;;;;;4.10;3.70;;;25.20;65.00;;;;;;6254969;22;20003;-91
2021/06/30 06:39:32;;;;;;;3.65;3.05;;;25.20;64.20;;;;;;6252682;22;20229;-91
2021/06/30 06:41:58;;;;;;;2.65;2.45;;;25.30;64.30;;;;;;6251670;22;20003;-91
2021/06/30 06:44:23;;;;;;;3.47;3.17;;;25.30;64.00;;;;;;6253204;22;20026;-90
2021/06/30 06:46:49;;;;;;;3.60;3.20;;;25.30;63.30;;;;;;6251952;22;20007;-91
2021/06/30 06:49:15;;;;;;;3.47;3.15;;;25.40;63.70;;;;;;6252408;22;20422;-90
2021/06/30 06:51:41;;;;;;;3.55;3.25;;;25.40;63.80;;;;;;6252119;22;20000;-90
2021/06/30 06:54:07;;;;;;;4.07;3.35;;;25.60;63.40;;;;;;6252299;22;19996;-91
2021/06/30 06:56:33;;;;;;;3.08;2.78;;;25.60;62.50;;;;;;6279278;22;19999;-91
2021/06/30 06:59:00;;;;;;;3.38;3.10;;;25.70;62.90;;;;;;6252895;22;20012;-91
2021/06/30 07:01:27;;;;;;;4.68;3.42;;;25.70;62.40;;;;;;6252394;22;20004;-90
2021/06/30 07:03:53;;;;;;;4.55;2.78;;;25.80;61.50;;;;;;6253841;22;20091;-91
2021/06/30 07:06:19;;;;;;;4.40;2.95;;;25.80;61.40;;;;;;6253536;22;20101;-90
2021/06/30 07:08:45;;;;;;;3.00;2.80;;;25.80;61.30;;;;;;6253482;22;20033;-91
2021/06/30 07:11:11;;;;;;;3.08;2.78;;;25.90;61.40;;;;;;6253026;22;20004;-90
2021/06/30 07:13:40;;;;;;;3.30;3.00;;;26.00;61.50;;;;;;6253724;22;20007;-90
2021/06/30 07:16:07;;;;;;;5.30;3.20;;;26.20;61.30;;;;;;6257487;22;19996;-90
2021/06/30 07:18:34;;;;;;;3.05;2.85;;;26.30;59.40;;;;;;6263397;22;20004;-90
2021/06/30 07:21:03;;;;;;;3.17;2.42;;;26.20;59.20;;;;;;6256347;22;20032;-91
2021/06/30 07:23:29;;;;;;;2.95;2.75;;;26.20;59.40;;;;;;6256471;22;20003;-91
2021/06/30 07:25:56;;;;;;;3.25;2.95;;;26.20;59.50;;;;;;6251883;22;20025;-91
2021/06/30 07:28:21;;;;;;;3.10;2.85;;;26.30;59.70;;;;;;6278906;22;19995;-92
2021/06/30 07:30:47;;;;;;;3.53;3.22;;;26.30;58.90;;;;;;6252001;22;20000;-90
2021/06/30 07:33:13;;;;;;;2.97;2.78;;;26.30;59.00;;;;;;6252575;22;19995;-92
2021/06/30 07:35:39;;;;;;;3.30;3.00;;;26.30;58.50;;;;;;6253271;22;20492;-92
2021/06/30 07:38:06;;;;;;;2.80;2.60;;;26.30;59.00;;;;;;6252481;22;20090;-92
2021/06/30 07:40:32;;;;;;;3.50;2.85;;;26.40;58.70;;;;;;6252192;22;19996;-93
2021/06/30 07:42:58;;;;;;;3.25;2.95;;;26.50;58.70;;;;;;6252269;22;20094;-91
2021/06/30 07:45:25;;;;;;;3.28;2.97;;;26.50;58.40;;;;;;6252156;22;20035;-92
2021/06/30 07:47:51;;;;;;;3.20;2.90;;;26.50;59.00;;;;;;6252200;22;20000;-92
2021/06/30 07:50:17;;;;;;;4.55;3.17;;;26.60;58.60;;;;;;6251050;22;20008;-91
2021/06/30 07:53:04;;;;;;;3.17;2.95;;;26.70;58.10;;;;;;6256214;22;20026;-91
2021/06/30 07:55:32;;;;;;;4.68;2.67;;;26.70;57.70;;;;;;6274248;22;20033;-91
2021/06/30 07:57:58;;;;;;;2.83;2.60;;;26.80;58.30;;;;;;6275139;22;20024;-90
2021/06/30 08:00:24;;;;;;;3.10;2.80;;;26.90;58.40;;;;;;6276457;22;19988;-90
2021/06/30 08:02:52;;;;;;;3.03;2.72;;;27.10;58.30;;;;;;6276545;22;20026;-91
2021/06/30 08:05:18;;;;;;;3.85;3.13;;;27.20;58.10;;;;;;6273537;22;20007;-91
2021/06/30 08:07:47;;;;;;;2.85;2.58;;;27.40;57.70;;;;;;6255277;22;20319;-91
2021/06/30 08:10:13;;;;;;;3.20;2.90;;;27.40;57.20;;;;;;6256902;22;20004;-92
2021/06/30 08:12:42;;;;;;;3.50;3.20;;;27.40;57.00;;;;;;6256157;22;19999;-90
2021/06/30 08:15:10;;;;;;;3.10;2.58;;;27.40;56.50;;;;;;6255804;22;20053;-90
2021/06/30 08:17:36;;;;;;;2.85;2.60;;;27.40;56.80;;;;;;6255027;22;20026;-91
2021/06/30 08:20:03;;;;;;;3.10;2.80;;;27.50;57.00;;;;;;6251680;22;20003;-91
2021/06/30 08:22:29;;;;;;;3.28;2.78;;;27.60;56.90;;;;;;6251650;22;20000;-91
2021/06/30 08:25:01;;;;;;;2.88;2.60;;;27.70;56.70;;;;;;6251339;22;20035;-91
2021/06/30 08:27:27;;;;;;;2.78;2.58;;;27.80;56.50;;;;;;6251225;22;20008;-91
2021/06/30 08:29:54;;;;;;;2.78;2.58;;;27.90;56.40;;;;;;6252368;22;20415;-90
2021/06/30 08:32:23;;;;;;;4.43;2.55;;;28.00;56.30;;;;;;6251376;22;20010;-91
2021/06/30 08:34:48;;;;;;;2.65;2.45;;;28.10;56.20;;;;;;6251690;22;20078;-90
2021/06/30 08:37:14;;;;;;;3.15;2.85;;;28.20;56.10;;;;;;6253246;22;20034;-91
2021/06/30 08:39:40;;;;;;;3.53;3.10;;;28.30;56.00;;;;;;6253236;22;19999;-91
2021/06/30 08:42:06;;;;;;;3.40;3.08;;;28.30;55.40;;;;;;6251607;22;20000;-91
2021/06/30 08:44:32;;;;;;;3.35;3.05;;;28.20;55.40;;;;;;6253212;22;19996;-92
2021/06/30 08:48:02;;;;;;;3.78;3.38;;;28.20;55.70;;;;;;6254625;22;20000;-90
2021/06/30 08:50:23;;;;;;;2.60;2.40;;;28.20;55.80;;;;;;6272232;22;20012;-90
2021/06/30 08:52:52;;;;;;;3.15;2.88;;;28.20;56.10;;;;;;6255025;22;20008;-90
2021/06/30 08:55:19;;;;;;;3.25;2.95;;;28.40;56.20;;;;;;6255544;22;20078;-91
2021/06/30 08:58:06;;;;;;;3.42;2.90;;;28.50;56.00;;;;;;6255941;22;20099;-91
2021/06/30 09:00:33;;;;;;;4.45;3.15;;;28.60;55.60;;;;;;6253056;22;20018;-91
2021/06/30 09:02:59;;;;;;;3.28;2.75;;;28.70;55.40;;;;;;6252646;22;20090;-90
2021/06/30 09:07:55;;;;;;;3.28;2.95;;;28.90;55.40;;;;;;6279333;22;20000;-90
2021/06/30 09:10:35;;;;;;;3.08;2.88;;;29.00;55.30;;;;;;6253005;22;20053;-92
2021/06/30 09:13:32;;;;;;;3.08;2.72;;;29.10;54.90;;;;;;6253803;22;20057;-93
2021/06/30 09:16:24;;;;;;;3.47;3.10;;;29.20;54.10;;;;;;6253186;22;19999;-91
2021/06/30 09:20:07;;;;;;;;;;;;;;;;;;;;;
2021/06/30 09:23:14;;;;;;;;;;;;;;;;;;;;;
2021/06/30 09:25:47;;;;;;;3.38;3.08;;;29.40;54.50;;;;;;6191612;23;20020;-92
2021/06/30 09:28:26;;;;;;;4.13;3.72;;;29.40;54.40;;;;;;6162354;23;20052;-92
2021/06/30 09:31:16;;;;;;;3.47;3.17;;;29.40;54.30;;;;;;6225883;22;20011;-95
2021/06/30 09:33:50;;;;;;;3.90;3.55;;;29.30;54.20;;;;;;6259745;22;20197;-94
2021/06/30 09:36:16;;;;;;;4.20;3.80;;;29.30;54.30;;;;;;6252419;22;20412;-93
2021/06/30 09:38:44;;;;;;;3.60;3.15;;;29.30;54.50;;;;;;6281337;22;19992;-94
2021/06/30 09:41:18;;;;;;;4.43;3.67;;;29.30;54.60;;;;;;6252745;22;20000;-94
2021/06/30 09:43:47;;;;;;;4.05;3.67;;;29.40;54.10;;;;;;6252527;22;20365;-94
2021/06/30 09:46:22;;;;;;;4.10;3.70;;;29.40;53.90;;;;;;6252584;22;19999;-94
2021/06/30 09:48:59;;;;;;;4.38;3.97;;;29.10;53.50;;;;;;6251799;22;20380;-95
2021/06/30 09:51:32;;;;;;;5.78;3.88;;;28.80;54.00;;;;;;6252899;22;20030;-95
2021/06/30 09:54:14;;;;;;;4.40;4.00;;;28.60;54.50;;;;;;6252347;22;20027;-94
2021/06/30 09:56:57;;;;;;;4.00;3.70;;;28.50;54.70;;;;;;6280710;22;20013;-93
2021/06/30 09:59:30;;;;;;;4.10;3.65;;;28.50;55.10;;;;;;6253408;22;20331;-93
2021/06/30 10:01:59;;;;;;;;;;;28.50;55.40;;;;;;6252958;22;20000;-93
2021/06/30 10:04:41;;;;;;;3.97;3.40;;;28.50;55.40;;;;;;6268969;22;19899;-93
2021/06/30 10:07:16;;;;;;;4.70;4.30;;;28.60;55.20;;;;;;6276729;22;20094;-92
2021/06/30 10:09:48;;;;;;;5.72;4.80;;;28.60;54.60;;;;;;6276979;22;20038;-93
2021/06/30 10:12:17;;;;;;;4.50;4.10;;;28.60;54.80;;;;;;6277616;22;20383;-93
2021/06/30 10:14:45;;;;;;;5.03;4.47;;;28.60;55.00;;;;;;6278292;22;20004;-93
2021/06/30 10:17:19;;;;;;;4.45;4.05;;;28.80;55.10;;;;;;6267938;22;20073;-95
2021/06/30 10:19:47;;;;;;;4.65;4.13;;;28.90;54.60;;;;;;6261330;22;20007;-94
2021/06/30 10:22:13;;;;;;;3.78;3.47;;;29.00;54.80;;;;;;6262259;22;20059;-93
2021/06/30 10:24:40;;;;;;;4.47;3.97;;;29.10;54.80;;;;;;6258882;22;20056;-91
2021/06/30 10:27:07;;;;;;;4.97;4.47;;;29.20;54.50;;;;;;6279681;22;20007;-90
2021/06/30 10:29:37;;;;;;;4.68;4.28;;;29.30;54.40;;;;;;6278316;22;20008;-91
2021/06/30 10:32:12;;;;;;;4.75;4.25;;;29.40;54.40;;;;;;6279112;22;19999;-91
2021/06/30 10:34:48;;;;;;;5.90;4.20;;;29.40;54.00;;;;;;6251364;22;19996;-90
2021/06/30 10:37:30;;;;;;;3.97;3.58;;;29.40;54.20;;;;;;6253645;22;20430;-89
2021/06/30 10:40:12;;;;;;;4.40;4.00;;;29.50;54.20;;;;;;6252268;22;20295;-90
2021/06/30 10:42:46;;;;;;;5.20;4.70;;;29.60;53.20;;;;;;6278775;22;20049;-90
2021/06/30 10:45:14;;;;;;;5.10;4.60;;;29.50;53.30;;;;;;6251107;22;20015;-88
2021/06/30 10:47:51;;;;;;;4.45;4.05;;;29.40;52.80;;;;;;6250945;22;20309;-92
2021/06/30 10:50:22;;;;;;;6.50;4.68;;;29.20;53.20;;;;;;6253402;22;20003;-92
2021/06/30 10:53:03;;;;;;;4.43;4.03;;;29.20;53.60;;;;;;6256198;22;20010;-91
2021/06/30 10:55:36;;;;;;;4.03;3.63;;;29.20;53.60;;;;;;6255876;22;19999;-93
2021/06/30 10:58:13;;;;;;;3.83;3.53;;;29.20;53.80;;;;;;6254217;22;20451;-90
2021/06/30 11:01:07;;;;;;;4.47;4.07;;;29.30;53.80;;;;;;6255507;22;20059;-91
2021/06/30 11:03:37;;;;;;;;;;;29.40;52.70;;;;;;6254097;22;20470;-91
2021/06/30 11:06:35;;;;;;;3.80;3.50;;;29.30;52.90;;;;;;6256966;22;19927;-91
2021/06/30 11:09:25;;;;;;;6.90;4.00;;;29.40;53.50;;;;;;6282220;22;20004;-92
2021/06/30 11:11:54;;;;;;;4.43;4.03;;;29.40;52.30;;;;;;6252692;22;20680;-92
2021/06/30 11:14:36;;;;;;;4.05;3.65;;;29.50;52.60;;;;;;6251056;22;20053;-93
2021/06/30 11:17:01;;;;;;;4.88;4.20;;;29.50;52.90;;;;;;6250349;22;20077;-91
2021/06/30 11:19:31;;;;;;;4.13;3.65;;;29.60;52.90;;;;;;6251519;22;20090;-90
2021/06/30 11:22:25;;;;;;;4.57;4.18;;;29.70;52.60;;;;;;6278503;22;20411;-91
2021/06/30 11:24:54;;;;;;;4.63;4.15;;;29.70;52.10;;;;;;6253950;22;20415;-91
2021/06/30 11:27:32;;;;;;;5.28;3.97;;;29.70;52.60;;;;;;6250588;22;20439;-91
2021/06/30 11:30:02;;;;;;;4.22;3.88;;;29.60;52.70;;;;;;6252778;22;20003;-91
2021/06/30 11:32:37;;;;;;;4.85;4.25;;;29.70;53.00;;;;;;6251485;22;20006;-92
2021/06/30 11:35:26;;;;;;;4.53;4.13;;;29.70;53.10;;;;;;6280497;22;20004;-91
2021/06/30 11:41:52;;;;;;;4.75;3.92;;;29.80;52.60;;;;;;6275858;22;20421;-92
2021/06/30 11:44:48;;;;;;;5.18;4.20;;;29.80;52.30;;;;;;6279539;22;20008;-90
2021/06/30 11:47:21;;;;;;;4.10;3.60;;;29.70;52.50;;;;;;6254989;22;20000;-92
2021/06/30 11:50:17;;;;;;;4.15;3.85;;;29.60;53.90;;;;;;6258863;22;20003;-91
2021/06/30 11:52:45;;;;;;;3.58;3.28;;;29.70;53.40;;;;;;6250141;22;20015;-91
2021/06/30 11:55:11;;;;;;;4.88;3.47;;;29.70;53.40;;;;;;6250015;22;20055;-91
2021/06/30 11:57:59;;;;;;;4.07;3.67;;;29.70;53.10;;;;;;6250271;22;20003;-90
2021/06/30 12:00:28;;;;;;;4.22;3.83;;;29.70;50.90;;;;;;6250810;22;20003;-92
2021/06/30 12:02:56;;;;;;;8.85;3.40;;;29.60;52.40;;;;;;6251830;22;20027;-92
2021/06/30 12:05:24;;;;;;;3.40;3.10;;;29.60;52.70;;;;;;6251306;22;20052;-91
2021/06/30 12:07:54;;;;;;;3.03;2.72;;;29.70;52.90;;;;;;6250280;22;20074;-91
2021/06/30 12:10:24;;;;;;;3.42;3.00;;;30.00;52.70;;;;;;6252678;22;20089;-90
2021/06/30 12:12:50;;;;;;;3.53;3.22;;;30.40;52.10;;;;;;6264047;22;19999;-90
2021/06/30 12:15:18;;;;;;;3.40;3.10;;;30.90;51.50;;;;;;6275704;22;19995;-92
2021/06/30 12:17:51;;;;;;;3.42;3.13;;;31.10;50.40;;;;;;6277055;22;20098;-89
2021/06/30 12:20:17;;;;;;;;;;;31.20;50.40;;;;;;6276958;22;20000;-90
2021/06/30 12:22:53;;;;;;;2.67;2.47;;;31.30;50.20;;;;;;6275502;22;19926;-92
2021/06/30 12:25:29;;;;;;;3.50;3.15;;;31.50;50.60;;;;;;6246629;22;20056;-92
2021/06/30 12:28:03;;;;;;;3.25;2.95;;;32.00;50.60;;;;;;6232350;22;20019;-93
2021/06/30 12:30:35;;;;;;;4.22;3.35;;;32.50;49.90;;;;;;6256717;22;20253;-91
2021/06/30 12:33:32;;;;;;;3.38;3.10;;;33.00;49.00;;;;;;6258722;22;20070;-91
2021/06/30 12:35:58;;;;;;;3.25;2.95;;;33.40;48.30;;;;;;6237504;22;20007;-92
2021/06/30 12:38:33;;;;;;;2.97;2.78;;;33.90;48.50;;;;;;6255727;22;19996;-92
2021/06/30 12:41:17;;;;;;;3.95;3.65;;;34.40;46.70;;;;;;6253519;22;20010;-93
2021/06/30 12:43:45;;;;;;;3.75;3.45;;;34.60;43.40;;;;;;6279251;22;20008;-91
2021/06/30 12:46:19;;;;;;;4.07;3.40;;;34.50;44.90;;;;;;6228813;22;20039;-91
2021/06/30 12:48:52;;;;;;;3.80;3.50;;;34.40;44.90;;;;;;6253967;22;20007;-90
2021/06/30 12:51:31;;;;;;;3.17;2.78;;;34.50;45.30;;;;;;6254555;22;20030;-92
2021/06/30 12:54:04;;;;;;;3.20;3.00;;;34.80;44.50;;;;;;6253898;22;20027;-93
2021/06/30 12:56:42;;;;;;;3.33;3.08;;;35.20;44.30;;;;;;6253810;22;20506;-91
2021/06/30 12:59:18;;;;;;;3.35;3.05;;;35.40;44.00;;;;;;6253978;22;20027;-91
2021/06/30 13:05:29;;;;;;;2.90;2.70;;;35.90;40.10;;;;;;6280131;22;20122;-91
2021/06/30 13:08:00;;;;;;;3.67;2.88;;;36.00;42.10;;;;;;6256938;22;20237;-90
2021/06/30 13:10:29;;;;;;;3.38;3.08;;;36.20;43.40;;;;;;6255575;22;20004;-90
2021/06/30 13:13:07;;;;;;;3.05;2.75;;;36.50;43.50;;;;;;6254586;22;20003;-90
2021/06/30 13:15:39;;;;;;;3.10;2.78;;;36.70;42.70;;;;;;6255640;22;20037;-89
2021/06/30 13:18:28;;;;;;;4.75;2.67;;;36.90;42.50;;;;;;6280939;22;19992;-90
2021/06/30 13:21:06;;;;;;;2.90;2.70;;;37.00;41.10;;;;;;6253803;22;20011;-92
2021/06/30 13:35:48;;;;;;;2.95;2.67;;;38.30;41.10;;;;;;6279372;22;20453;-92
2021/06/30 13:38:44;;;;;;;2.90;2.70;;;38.60;39.90;;;;;;6250848;22;20042;-91